Time;durP1;ratioP1;P1;durP2;ratioP2;P2;SDS_P1;SDS_P2;PMS_P1;PMS_P2;Temp;Humidity;BMP_temperature;BMP_pressure;BME280_temperature;BME280_humidity;BME280_pressure;Samples;Min_cycle;Max_cycle;Signal;HPM_P1;HPM_P2
2021/12/01 00:02:04;;;;;;;14.70;9.37;;;;;;;8.89;100.00;100083.28;5091350;28;20039;-84
2021/12/01 00:04:29;;;;;;;10.93;8.23;;;;;;;8.83;100.00;100067.97;5090776;28;20039;-85
2021/12/01 00:06:55;;;;;;;10.50;8.13;;;;;;;8.85;100.00;100065.88;5090421;28;20040;-84
2021/12/01 00:09:20;;;;;;;10.30;7.70;;;;;;;8.90;100.00;100060.63;5090531;28;20110;-84
2021/12/01 00:11:45;;;;;;;8.63;7.70;;;;;;;8.84;100.00;100039.94;5091655;28;20092;-84
2021/12/01 00:14:11;;;;;;;10.07;7.40;;;;;;;8.88;100.00;100043.84;5089984;28;20051;-86
2021/12/01 00:16:36;;;;;;;9.03;6.80;;;;;;;8.86;100.00;100037.81;5091314;28;20338;-84
2021/12/01 00:19:02;;;;;;;9.50;7.20;;;;;;;8.84;100.00;100020.16;5092040;28;20032;-84
2021/12/01 00:21:27;;;;;;;7.60;6.40;;;;;;;8.84;100.00;100031.81;5091577;28;20487;-85
2021/12/01 00:23:53;;;;;;;7.57;6.03;;;;;;;8.85;100.00;100019.94;5091799;28;20036;-85
2021/12/01 00:26:18;;;;;;;8.00;6.60;;;;;;;8.86;100.00;100001.88;5091677;28;20040;-87
2021/12/01 00:28:43;;;;;;;8.20;6.13;;;;;;;8.85;100.00;99992.13;5091463;28;20051;-85
2021/12/01 00:31:09;;;;;;;7.90;6.70;;;;;;;8.77;100.00;99971.59;5090161;28;20322;-87
2021/12/01 00:33:35;;;;;;;6.80;6.10;;;;;;;8.88;100.00;99973.59;5091502;28;20067;-90
2021/12/01 00:36:00;;;;;;;7.40;6.20;;;;;;;8.87;100.00;99968.44;5090139;28;20042;-88
2021/12/01 00:38:28;;;;;;;6.67;5.63;;;;;;;8.85;100.00;99968.63;5072648;28;20089;-86
2021/12/01 00:40:54;;;;;;;6.50;5.80;;;;;;;8.84;100.00;99958.88;5092109;28;20040;-88
2021/12/01 00:43:20;;;;;;;7.77;5.83;;;;;;;8.79;100.00;99931.72;5091208;28;20094;-86
2021/12/01 00:45:53;;;;;;;6.10;5.50;;;;;;;8.76;100.00;99932.97;5076947;28;20530;-85
2021/12/01 00:48:19;;;;;;;7.28;4.93;;;;;;;8.78;100.00;99930.03;5093415;28;20028;-87
2021/12/01 00:50:46;;;;;;;5.63;4.97;;;;;;;8.93;100.00;99937.81;5093996;28;20047;-84
2021/12/01 00:53:19;;;;;;;5.73;5.00;;;;;;;8.87;100.00;99923.31;5094088;28;20055;-85
2021/12/01 00:55:45;;;;;;;5.20;4.67;;;;;;;8.86;100.00;99932.47;5095040;28;20028;-85
2021/12/01 00:58:12;;;;;;;5.53;4.90;;;;;;;8.85;100.00;99933.50;5094836;28;20096;-85
2021/12/01 01:00:39;;;;;;;5.63;5.10;;;;;;;8.85;100.00;99914.59;5076586;28;20452;-85
2021/12/01 01:03:06;;;;;;;5.93;4.73;;;;;;;8.73;100.00;99902.88;5094450;28;20078;-86
2021/12/01 01:05:31;;;;;;;5.30;4.40;;;;;;;8.86;100.00;99910.03;5094589;28;20035;-83
2021/12/01 01:07:57;;;;;;;5.40;4.47;;;;;;;8.76;100.00;99916.78;5095207;28;20380;-89
2021/12/01 01:18:30;;;;;;;6.10;5.00;;;;;;;8.76;100.00;99880.84;5094390;28;20419;-84
2021/12/01 01:20:56;;;;;;;6.13;4.60;;;;;;;8.61;100.00;99848.78;5094437;28;20024;-86
2021/12/01 01:23:22;;;;;;;4.97;4.47;;;;;;;8.68;100.00;99849.53;5093386;28;20028;-86
2021/12/01 01:25:47;;;;;;;5.00;4.33;;;;;;;8.82;100.00;99876.41;5093236;28;20057;-85
2021/12/01 01:28:12;;;;;;;5.50;4.90;;;;;;;8.69;100.00;99863.88;5094227;28;20036;-86
2021/12/01 01:30:38;;;;;;;6.33;4.70;;;;;;;8.77;100.00;99868.97;5094205;28;20036;-86
2021/12/01 01:33:03;;;;;;;5.33;4.83;;;;;;;8.72;100.00;99850.75;5093968;28;20047;-89
2021/12/01 01:35:29;;;;;;;6.10;5.20;;;;;;;8.71;100.00;99846.38;5094297;28;20039;-87
2021/12/01 01:37:54;;;;;;;7.67;5.70;;;;;;;8.73;100.00;99843.47;5092846;28;20085;-90
2021/12/01 01:40:20;;;;;;;9.27;6.20;;;;;;;8.63;100.00;99835.88;5093601;28;20035;-86
2021/12/01 01:42:48;;;;;;;8.17;6.30;;;;;;;8.76;100.00;99854.66;5092725;28;20460;-87
2021/12/01 01:45:14;;;;;;;10.00;7.37;;;;;;;8.65;100.00;99843.75;5094472;28;20028;-86
2021/12/01 01:48:00;;;;;;;10.70;7.33;;;;;;;8.54;100.00;99821.84;5093811;28;20036;-89
2021/12/01 01:50:36;;;;;;;8.00;7.13;;;;;;;8.57;100.00;99832.22;5093741;28;20028;-85
2021/12/01 01:53:20;;;;;;;9.73;7.53;;;;;;;8.61;100.00;99832.59;5093770;28;20111;-85
2021/12/01 01:55:47;;;;;;;8.52;6.60;;;;;;;8.51;100.00;99811.50;5093239;28;20043;-87
2021/12/01 01:58:14;;;;;;;9.40;7.80;;;;;;;8.52;100.00;99828.53;5085446;28;20024;-85
2021/12/01 02:00:54;;;;;;;10.40;8.13;;;;;;;8.53;100.00;99819.38;5093845;28;20036;-88
2021/12/01 02:03:22;;;;;;;9.10;7.03;;;;;;;8.52;100.00;99813.16;5093681;28;20032;-84
2021/12/01 02:05:49;;;;;;;9.93;7.60;;;;;;;8.43;100.00;99792.84;5093881;28;20032;-87
2021/12/01 02:08:20;;;;;;;8.20;6.83;;;;;;;8.45;100.00;99801.59;5093144;28;20032;-83
2021/12/01 02:10:50;;;;;;;8.63;7.60;;;;;;;8.38;100.00;99769.25;5092307;28;20112;-87
2021/12/01 02:13:20;;;;;;;9.33;7.33;;;;;;;8.44;100.00;99786.41;5092879;28;20437;-86
2021/12/01 02:15:48;;;;;;;7.87;6.33;;;;;;;8.33;100.00;99752.06;5093971;28;20036;-85
2021/12/01 02:18:14;;;;;;;6.53;5.73;;;;;;;8.35;100.00;99761.59;5092839;28;20036;-87
2021/12/01 02:20:56;;;;;;;7.67;6.47;;;;;;;8.31;100.00;99756.84;5092253;28;20039;-87
2021/12/01 02:23:23;;;;;;;6.33;5.13;;;;;;;8.32;100.00;99758.50;5091938;28;20032;-88
2021/12/01 02:25:51;;;;;;;7.27;6.10;;;;;;;8.30;100.00;99766.84;5092288;28;20080;-84
2021/12/01 02:28:16;;;;;;;9.70;6.33;;;;;;;8.10;100.00;99711.22;5091921;28;20032;-86
2021/12/01 02:30:41;;;;;;;7.30;5.77;;;;;;;8.28;100.00;99737.38;5092827;28;20043;-84
2021/12/01 02:33:07;;;;;;;7.50;6.10;;;;;;;8.27;100.00;99716.03;5093166;28;20028;-88
2021/12/01 02:35:32;;;;;;;6.23;5.53;;;;;;;8.25;100.00;99721.66;5057410;28;20561;-86
2021/12/01 02:37:58;;;;;;;6.00;5.27;;;;;;;8.17;100.00;99699.50;5085598;28;20434;-91
2021/12/01 02:40:24;;;;;;;5.37;4.60;;;;;;;8.25;100.00;99710.84;5093022;28;20028;-86
2021/12/01 02:42:49;;;;;;;5.40;4.90;;;;;;;8.23;100.00;99707.53;5092790;28;20031;-90
2021/12/01 02:45:15;;;;;;;4.50;4.10;;;;;;;8.28;100.00;99683.41;5093041;28;20497;-88
2021/12/01 02:47:40;;;;;;;5.43;4.43;;;;;;;8.20;100.00;99681.00;5092440;28;20068;-85
2021/12/01 02:50:06;;;;;;;4.17;3.77;;;;;;;8.26;100.00;99680.09;5092555;28;20036;-85
2021/12/01 02:52:34;;;;;;;3.73;3.43;;;;;;;8.22;100.00;99673.50;5091466;28;20418;-89
2021/12/01 02:55:04;;;;;;;4.13;3.73;;;;;;;8.20;100.00;99675.63;5091559;28;20119;-87
2021/12/01 02:57:40;;;;;;;4.27;3.67;;;;;;;8.18;100.00;99647.19;5091414;28;20434;-85
2021/12/01 03:00:07;;;;;;;3.80;3.43;;;;;;;8.23;100.00;99675.16;5092932;28;20063;-87
2021/12/01 03:02:32;;;;;;;4.60;3.30;;;;;;;8.23;100.00;99658.97;5071308;28;20066;-86
2021/12/01 03:04:57;;;;;;;4.77;3.43;;;;;;;8.10;100.00;99654.56;5088498;28;20032;-86
2021/12/01 03:07:23;;;;;;;3.83;3.43;;;;;;;8.18;100.00;99648.00;5091803;28;20065;-88
2021/12/01 03:09:48;;;;;;;5.07;3.70;;;;;;;8.15;100.00;99650.34;5090883;28;20146;-84
2021/12/01 03:12:14;;;;;;;4.47;4.07;;;;;;;8.12;100.00;99651.63;5092240;28;20515;-86
2021/12/01 03:14:39;;;;;;;5.27;3.97;;;;;;;8.10;100.00;99637.53;5073296;28;20134;-85
2021/12/01 03:17:05;;;;;;;5.10;3.97;;;;;;;8.03;100.00;99631.41;5092344;28;20028;-83
2021/12/01 03:19:30;;;;;;;6.17;4.27;;;;;;;8.07;100.00;99622.63;5091083;28;20524;-82
2021/12/01 03:21:55;;;;;;;6.10;4.23;;;;;;;8.04;100.00;99624.97;5090543;28;20438;-85
2021/12/01 03:24:21;;;;;;;4.83;3.93;;;;;;;8.09;100.00;99619.69;5091970;28;20032;-85
2021/12/01 03:26:46;;;;;;;5.30;4.77;;;;;;;8.05;100.00;99613.09;5092412;28;20036;-84
2021/12/01 03:29:14;;;;;;;5.80;4.90;;;;;;;7.92;100.00;99585.22;5092225;28;20032;-84
2021/12/01 03:31:40;;;;;;;4.73;4.30;;;;;;;7.92;100.00;99598.72;5091657;28;20067;-83
2021/12/01 03:34:05;;;;;;;6.40;4.87;;;;;;;8.01;100.00;99585.75;5091782;28;20103;-84
2021/12/01 03:36:31;;;;;;;9.03;5.17;;;;;;;8.03;100.00;99593.63;5091903;28;20483;-83
2021/12/01 03:38:56;;;;;;;5.33;4.83;;;;;;;7.99;100.00;99576.25;5092098;28;20032;-84
2021/12/01 03:41:22;;;;;;;6.63;4.70;;;;;;;8.01;100.00;99574.97;5092222;28;20109;-85
2021/12/01 03:43:47;;;;;;;5.10;4.40;;;;;;;8.03;99.77;99569.34;5092015;28;20043;-84
2021/12/01 03:46:13;;;;;;;4.63;4.07;;;;;;;7.99;99.67;99560.06;5092166;28;20035;-85
2021/12/01 03:48:38;;;;;;;5.43;4.33;;;;;;;8.05;99.79;99569.94;5091732;28;20032;-84
2021/12/01 03:51:03;;;;;;;5.07;4.40;;;;;;;7.96;99.78;99555.13;5091817;28;20036;-83
2021/12/01 03:53:29;;;;;;;6.23;4.43;;;;;;;8.02;99.47;99543.41;5092254;28;20039;-82
2021/12/01 03:55:54;;;;;;;5.30;3.53;;;;;;;8.04;99.07;99550.22;5090156;28;20475;-85
2021/12/01 03:58:20;;;;;;;6.27;4.63;;;;;;;7.99;99.39;99527.69;5092138;28;20035;-83
2021/12/01 04:00:46;;;;;;;6.80;4.10;;;;;;;8.06;98.37;99536.50;5091568;28;20476;-84
2021/12/01 04:03:12;;;;;;;5.40;4.37;;;;;;;7.92;98.63;99517.00;5090420;28;20395;-85
2021/12/01 04:05:37;;;;;;;5.63;4.10;;;;;;;7.96;98.44;99495.78;5091887;28;20043;-85
2021/12/01 04:08:05;;;;;;;5.57;4.43;;;;;;;7.96;98.37;99509.28;5091503;28;20067;-86
2021/12/01 04:10:31;;;;;;;4.67;3.87;;;;;;;8.00;97.97;99491.59;5091675;28;20024;-85
2021/12/01 04:12:57;;;;;;;5.30;4.80;;;;;;;7.97;98.37;99500.13;5091515;28;20117;-85
2021/12/01 04:15:22;;;;;;;7.27;4.87;;;;;;;7.97;97.96;99486.63;5090143;28;20482;-81
2021/12/01 04:17:49;;;;;;;5.60;4.53;;;;;;;7.93;97.99;99483.59;5091003;28;20040;-84
2021/12/01 04:20:16;;;;;;;5.00;4.50;;;;;;;7.99;97.37;99473.75;5087500;28;20035;-87
2021/12/01 04:22:44;;;;;;;5.50;5.00;;;;;;;7.99;96.98;99473.75;5095777;28;20039;-84
2021/12/01 04:25:10;;;;;;;6.37;5.70;;;;;;;7.92;97.11;99453.06;5095687;28;20035;-83
2021/12/01 04:27:36;;;;;;;7.13;5.27;;;;;;;7.97;97.54;99448.88;5095465;28;20032;-87
2021/12/01 04:30:03;;;;;;;6.03;5.40;;;;;;;7.92;97.21;99442.28;5095402;28;20517;-85
2021/12/01 04:32:29;;;;;;;7.47;4.40;;;;;;;8.01;96.38;99453.59;5095320;28;20032;-84
2021/12/01 04:34:56;;;;;;;5.93;4.73;;;;;;;7.88;96.57;99424.91;5094039;28;20040;-88
2021/12/01 04:37:22;;;;;;;4.83;4.27;;;;;;;7.86;96.12;99410.84;5086297;28;20052;-87
2021/12/01 04:39:47;;;;;;;4.83;4.33;;;;;;;7.86;95.91;99408.16;5095323;28;20416;-85
2021/12/01 04:42:13;;;;;;;4.90;4.40;;;;;;;7.91;95.34;99384.03;5095291;28;20526;-86
2021/12/01 04:44:39;;;;;;;4.30;3.90;;;;;;;7.93;95.52;99391.88;5095090;28;20036;-85
2021/12/01 04:47:10;;;;;;;4.97;4.00;;;;;;;7.87;95.71;99385.50;5094731;28;20059;-86
2021/12/01 04:49:39;;;;;;;4.77;4.00;;;;;;;7.88;95.64;99395.25;5094967;28;20024;-86
2021/12/01 04:52:06;;;;;;;5.33;3.70;;;;;;;7.82;96.00;99377.31;5094860;28;20068;-84
2021/12/01 04:54:33;;;;;;;4.77;4.27;;;;;;;7.82;96.31;99363.84;5095000;28;20094;-82
2021/12/01 04:57:00;;;;;;;4.97;3.70;;;;;;;7.75;96.42;99361.22;5093552;28;20036;-85
2021/12/01 04:59:26;;;;;;;4.53;3.70;;;;;;;7.77;97.07;99352.91;5093428;28;20038;-89
2021/12/01 05:02:17;;;;;;;4.20;3.80;;;;;;;7.76;97.83;99367.44;5095140;28;20476;-89
2021/12/01 05:04:43;;;;;;;4.60;3.93;;;;;;;7.59;98.59;99340.31;5094555;28;20028;-87
2021/12/01 05:07:09;;;;;;;4.30;3.90;;;;;;;7.47;99.58;99331.38;5094707;28;20553;-84
2021/12/01 05:09:35;;;;;;;5.23;4.10;;;;;;;7.46;100.00;99346.69;5093053;28;20031;-88
2021/12/01 05:12:01;;;;;;;6.97;4.43;;;;;;;7.43;100.00;99341.78;5094453;28;20067;-85
2021/12/01 05:14:28;;;;;;;7.27;4.40;;;;;;;7.29;100.00;99324.13;5109659;28;20048;-86
2021/12/01 05:16:57;;;;;;;5.53;4.00;;;;;;;7.36;100.00;99346.44;5094613;28;20036;-83
2021/12/01 05:19:22;;;;;;;4.67;3.93;;;;;;;7.23;100.00;99312.38;5076122;28;20446;-84
2021/12/01 05:21:48;;;;;;;5.47;4.17;;;;;;;7.26;100.00;99323.53;5094700;28;20036;-88
2021/12/01 05:24:14;;;;;;;5.67;3.50;;;;;;;7.36;100.00;99328.38;5094457;28;20028;-85
2021/12/01 05:26:40;;;;;;;5.53;3.83;;;;;;;7.33;100.00;99317.22;5093998;28;20476;-86
2021/12/01 05:29:06;;;;;;;4.87;4.00;;;;;;;7.26;100.00;99323.53;5093430;28;20046;-88
2021/12/01 05:31:32;;;;;;;5.97;4.27;;;;;;;7.30;100.00;99309.59;5092588;28;20032;-87
2021/12/01 05:33:57;;;;;;;5.20;3.90;;;;;;;7.21;100.00;99311.81;5092778;28;20040;-87
2021/12/01 05:36:23;;;;;;;5.10;3.83;;;;;;;7.25;100.00;99313.00;5094243;28;20035;-87
2021/12/01 05:38:49;;;;;;;4.33;3.63;;;;;;;7.26;100.00;99304.69;5092798;28;20460;-88
2021/12/01 05:41:15;;;;;;;5.60;3.97;;;;;;;7.14;100.00;99279.56;5094361;28;20043;-87
2021/12/01 05:43:42;;;;;;;3.47;3.03;;;;;;;7.23;100.00;99305.13;5093881;28;20400;-89
2021/12/01 05:46:07;;;;;;;5.03;3.50;;;;;;;7.00;100.00;99265.44;5094241;28;20102;-87
2021/12/01 05:48:33;;;;;;;4.47;3.20;;;;;;;7.11;100.00;99280.00;5093659;28;20039;-87
2021/12/01 05:50:58;;;;;;;3.07;2.73;;;;;;;7.04;100.00;99276.59;5093658;28;20039;-88
2021/12/01 05:53:24;;;;;;;3.60;3.07;;;;;;;7.00;100.00;99257.34;5093846;28;20063;-87
2021/12/01 05:55:49;;;;;;;3.53;3.10;;;;;;;7.09;100.00;99261.38;5093855;28;20043;-86
2021/12/01 05:58:15;;;;;;;3.43;3.03;;;;;;;7.08;100.00;99265.13;5092294;28;20036;-85
2021/12/01 06:00:40;;;;;;;5.23;2.63;;;;;;;7.10;100.00;99256.84;5093711;28;20036;-87
2021/12/01 06:03:06;;;;;;;3.17;2.90;;;;;;;6.95;100.00;99214.16;5093775;28;20036;-88
2021/12/01 06:05:31;;;;;;;2.73;2.53;;;;;;;7.05;100.00;99235.16;5092389;28;20032;-86
2021/12/01 06:07:57;;;;;;;3.83;2.20;;;;;;;7.02;100.00;99228.34;5093792;28;20024;-86
2021/12/01 06:10:22;;;;;;;2.60;2.40;;;;;;;7.07;100.00;99192.63;5092074;28;20107;-86
2021/12/01 06:12:48;;;;;;;2.40;2.20;;;;;;;7.08;100.00;99213.13;5092373;28;20089;-85
2021/12/01 06:15:17;;;;;;;2.60;2.40;;;;;;;6.98;100.00;99204.81;5092219;28;20054;-85
2021/12/01 06:17:43;;;;;;;2.50;1.90;;;;;;;7.10;100.00;99211.06;5093046;28;20031;-85
2021/12/01 06:20:10;;;;;;;2.67;2.30;;;;;;;7.08;100.00;99191.59;5093270;28;20115;-88
2021/12/01 06:22:35;;;;;;;3.53;2.20;;;;;;;7.12;100.00;99198.16;5092141;28;20028;-84
2021/12/01 06:25:01;;;;;;;2.40;2.17;;;;;;;7.12;100.00;99190.09;5092925;28;20043;-87
2021/12/01 06:27:27;;;;;;;2.80;2.20;;;;;;;7.01;100.00;99161.25;5093379;28;20082;-88
2021/12/01 06:29:53;;;;;;;3.07;2.67;;;;;;;7.04;100.00;99166.97;5093261;28;20068;-86
2021/12/01 06:32:19;;;;;;;3.57;2.50;;;;;;;7.04;100.00;99168.88;5093015;28;20035;-88
2021/12/01 06:34:44;;;;;;;2.60;2.20;;;;;;;7.09;100.00;99167.13;5092023;28;20036;-84
2021/12/01 06:37:10;;;;;;;3.20;2.40;;;;;;;7.12;100.00;99183.88;5092931;28;20039;-85
2021/12/01 06:39:36;;;;;;;2.90;2.70;;;;;;;7.14;100.00;99171.84;5092918;28;20028;-87
2021/12/01 06:42:01;;;;;;;4.03;2.70;;;;;;;7.08;100.00;99165.47;5093563;28;20036;-89
2021/12/01 06:44:30;;;;;;;2.60;2.40;;;;;;;7.16;100.00;99177.78;5071646;28;20044;-86
2021/12/01 06:46:58;;;;;;;3.17;2.80;;;;;;;7.15;100.00;99170.75;5090048;28;20028;-87
2021/12/01 06:49:24;;;;;;;2.60;2.40;;;;;;;7.16;100.00;99141.97;5084955;28;20046;-86
2021/12/01 06:51:49;;;;;;;2.73;2.53;;;;;;;7.14;100.00;99134.13;5074613;28;20028;-87
2021/12/01 06:54:15;;;;;;;3.00;2.67;;;;;;;7.20;100.00;99143.16;5092607;28;20067;-85
2021/12/01 06:56:40;;;;;;;3.97;2.60;;;;;;;7.20;100.00;99146.66;5092317;28;20031;-85
2021/12/01 06:59:05;;;;;;;3.33;3.00;;;;;;;7.22;100.00;99141.03;5092891;28;20035;-86
2021/12/01 07:01:31;;;;;;;3.10;2.80;;;;;;;7.18;100.00;99143.38;5092505;28;20109;-84
2021/12/01 07:03:56;;;;;;;2.87;2.57;;;;;;;7.19;100.00;99136.13;5091230;28;20036;-83
2021/12/01 07:06:21;;;;;;;3.23;2.80;;;;;;;7.19;100.00;99131.53;5092502;28;20036;-84
2021/12/01 07:08:47;;;;;;;3.30;3.00;;;;;;;7.19;100.00;99128.03;5092151;28;20034;-85
2021/12/01 07:11:14;;;;;;;3.87;3.50;;;;;;;7.15;100.00;99134.94;5092119;28;20044;-84
2021/12/01 07:13:39;;;;;;;3.70;3.40;;;;;;;7.21;100.00;99137.53;5092409;28;20106;-84
2021/12/01 07:16:05;;;;;;;2.90;2.63;;;;;;;7.26;100.00;99134.13;5092335;28;20046;-84
2021/12/01 07:18:30;;;;;;;4.00;3.70;;;;;;;7.25;100.00;99129.81;5092614;28;20032;-81
2021/12/01 07:20:56;;;;;;;3.90;3.50;;;;;;;7.33;100.00;99117.84;5092114;28;20028;-83
2021/12/01 07:23:23;;;;;;;3.93;3.27;;;;;;;7.31;100.00;99110.00;5092172;28;20039;-83
2021/12/01 07:25:48;;;;;;;3.80;3.50;;;;;;;7.34;100.00;99124.88;5092288;28;20086;-82
2021/12/01 07:28:14;;;;;;;5.93;4.10;;;;;;;7.36;100.00;99134.38;5091835;28;20040;-84
2021/12/01 07:30:39;;;;;;;3.37;3.07;;;;;;;7.26;100.00;99105.34;5073845;28;20062;-82
2021/12/01 07:33:05;;;;;;;4.20;3.80;;;;;;;7.35;100.00;99119.25;5091961;28;20028;-85
2021/12/01 07:35:31;;;;;;;5.13;4.00;;;;;;;7.34;100.00;99120.31;5091746;28;20029;-83
2021/12/01 07:37:56;;;;;;;5.63;4.27;;;;;;;7.37;100.00;99122.56;5092195;28;20028;-82
2021/12/01 07:40:22;;;;;;;4.30;3.90;;;;;;;7.29;100.00;99111.28;5091912;28;20111;-83
2021/12/01 07:42:47;;;;;;;6.73;3.90;;;;;;;7.33;100.00;99107.91;5092363;28;20029;-84
2021/12/01 07:45:12;;;;;;;4.20;3.53;;;;;;;7.40;100.00;99088.94;5091775;28;20209;-84
2021/12/01 07:47:39;;;;;;;4.03;3.50;;;;;;;7.52;100.00;99105.94;5090673;28;20073;-81
2021/12/01 07:50:05;;;;;;;4.67;4.03;;;;;;;7.48;100.00;99079.66;5091767;28;20057;-81
2021/12/01 07:52:32;;;;;;;6.83;4.37;;;;;;;7.55;100.00;99089.28;5090384;28;20039;-85
2021/12/01 07:54:58;;;;;;;4.30;3.90;;;;;;;7.49;100.00;99070.53;5096026;28;20032;-85
2021/12/01 07:57:23;;;;;;;4.27;3.80;;;;;;;7.50;100.00;99069.50;5096132;28;20034;-85
2021/12/01 07:59:48;;;;;;;7.77;3.97;;;;;;;7.64;100.00;99078.16;5095164;28;20028;-87
2021/12/01 08:02:14;;;;;;;5.80;3.70;;;;;;;7.66;100.00;99076.03;5094280;28;20071;-90
2021/12/01 08:04:39;;;;;;;5.47;4.10;;;;;;;7.72;100.00;99077.78;5096711;28;20048;-88
2021/12/01 08:07:05;;;;;;;4.00;3.60;;;;;;;7.71;100.00;99081.53;5096087;28;20035;-88
2021/12/01 08:09:31;;;;;;;4.03;3.60;;;;;;;7.75;100.00;99075.44;5096174;28;20373;-89
2021/12/01 08:11:57;;;;;;;4.30;3.93;;;;;;;7.82;100.00;99075.31;5094511;28;20039;-89
2021/12/01 08:14:23;;;;;;;4.23;3.83;;;;;;;7.70;100.00;99063.75;5094686;28;20562;-88
2021/12/01 08:16:50;;;;;;;5.23;4.03;;;;;;;7.77;100.00;99072.50;5095674;28;20115;-88
2021/12/01 08:19:15;;;;;;;4.83;4.33;;;;;;;7.72;100.00;99054.31;5096069;28;20399;-88
2021/12/01 08:21:46;;;;;;;5.60;4.23;;;;;;;7.71;100.00;99041.09;5096136;28;20032;-84
2021/12/01 08:24:12;;;;;;;4.60;4.20;;;;;;;7.74;100.00;99073.00;5095634;28;20070;-87
2021/12/01 08:26:39;;;;;;;4.40;4.00;;;;;;;7.78;100.00;99057.97;5095558;28;20475;-86
2021/12/01 08:29:05;;;;;;;5.17;4.50;;;;;;;7.80;100.00;99066.63;5095513;28;20039;-89
2021/12/01 08:31:30;;;;;;;5.30;4.23;;;;;;;7.75;100.00;99059.28;5095813;28;20103;-88
2021/12/01 08:33:55;;;;;;;4.93;4.33;;;;;;;7.72;100.00;99069.69;5095736;28;20089;-88
2021/12/01 08:36:21;;;;;;;4.73;4.33;;;;;;;7.76;100.00;99065.47;5095902;28;20039;-89
2021/12/01 08:38:46;;;;;;;8.80;5.30;;;;;;;7.79;100.00;99073.06;5095474;28;20047;-90
2021/12/01 08:41:12;;;;;;;7.03;5.40;;;;;;;7.75;100.00;99058.44;5094111;28;20094;-89
2021/12/01 08:43:37;;;;;;;6.30;5.10;;;;;;;7.80;100.00;99057.72;5095642;28;20036;-90
2021/12/01 08:46:05;;;;;;;6.27;5.00;;;;;;;7.76;100.00;99025.88;5094496;28;20047;-89
2021/12/01 08:48:31;;;;;;;7.50;5.20;;;;;;;7.68;100.00;99020.81;5095485;28;20035;-88
2021/12/01 08:51:01;;;;;;;7.57;4.60;;;;;;;7.89;100.00;99038.25;5095540;28;20071;-87
2021/12/01 08:53:27;;;;;;;5.10;4.57;;;;;;;7.73;100.00;99004.75;5094649;28;20071;-88
2021/12/01 08:55:52;;;;;;;6.43;5.30;;;;;;;7.88;100.00;99016.91;5095500;28;20059;-87
2021/12/01 08:58:19;;;;;;;5.73;4.50;;;;;;;8.06;100.00;99041.00;5094394;28;20036;-90
2021/12/01 09:00:46;;;;;;;5.03;4.53;;;;;;;8.05;100.00;99031.28;5095521;28;20491;-88
2021/12/01 09:03:12;;;;;;;4.80;4.27;;;;;;;8.05;100.00;99027.75;5095584;28;20028;-87
2021/12/01 09:05:39;;;;;;;4.73;3.97;;;;;;;7.99;100.00;99013.34;5094094;28;20133;-89
2021/12/01 09:08:05;;;;;;;5.40;4.23;;;;;;;8.06;100.00;99021.31;5094397;28;20024;-88
2021/12/01 09:10:31;;;;;;;6.87;4.60;;;;;;;8.03;100.00;98997.53;5094541;28;20039;-90
2021/12/01 09:12:57;;;;;;;4.93;4.27;;;;;;;8.16;100.00;99029.59;5096081;28;20028;-87
2021/12/01 09:15:26;;;;;;;5.10;4.60;;;;;;;7.99;100.00;99016.06;5095186;28;20133;-89
2021/12/01 09:17:51;;;;;;;5.90;4.40;;;;;;;8.10;100.00;99044.88;5094830;28;20077;-86
2021/12/01 09:20:17;;;;;;;4.63;4.10;;;;;;;8.14;100.00;99033.59;5095368;28;20040;-88
2021/12/01 09:22:42;;;;;;;5.40;4.80;;;;;;;8.19;100.00;99036.41;5094656;28;20036;-92
2021/12/01 09:25:08;;;;;;;5.70;4.27;;;;;;;8.15;100.00;99049.53;5095081;28;20494;-89
2021/12/01 09:27:34;;;;;;;4.27;3.87;;;;;;;8.11;100.00;99059.97;5095165;28;20554;-88
2021/12/01 09:30:00;;;;;;;7.67;4.90;;;;;;;8.16;100.00;99058.44;5094999;28;20119;-88
2021/12/01 09:32:25;;;;;;;9.63;4.90;;;;;;;8.17;100.00;99070.88;5093858;28;20182;-86
2021/12/01 09:34:51;;;;;;;8.47;5.10;;;;;;;8.04;100.00;99070.09;5094418;28;20028;-84
2021/12/01 09:37:16;;;;;;;7.43;5.50;;;;;;;7.91;100.00;99056.88;5094800;28;20549;-87
2021/12/01 09:39:43;;;;;;;7.10;5.30;;;;;;;7.96;100.00;99072.38;5094704;28;20035;-89
2021/12/01 09:42:11;;;;;;;7.07;6.13;;;;;;;7.80;100.00;99072.03;5094935;28;20028;-90
2021/12/01 09:44:37;;;;;;;8.00;6.30;;;;;;;7.82;100.00;99106.84;5094898;28;20035;-84
2021/12/01 09:47:03;;;;;;;7.73;5.10;;;;;;;7.65;100.00;99101.34;5094235;28;20031;-86
2021/12/01 09:49:29;;;;;;;10.80;4.10;;;;;;;7.29;100.00;99124.75;5094254;28;20110;-91
2021/12/01 09:51:55;;;;;;;15.10;4.87;;;;;;;6.96;100.00;99112.66;5093560;28;20066;-88
2021/12/01 09:54:20;;;;;;;12.47;4.80;;;;;;;6.82;100.00;99125.50;5094213;28;20024;-86
2021/12/01 09:56:46;;;;;;;16.87;3.83;;;;;;;6.62;100.00;99113.13;5094361;28;20081;-89
2021/12/01 09:59:11;;;;;;;12.47;3.43;;;;;;;6.53;100.00;99109.13;5093978;28;20032;-93
2021/12/01 10:01:37;;;;;;;12.60;3.30;;;;;;;6.53;100.00;99117.22;5094157;28;20024;-95
2021/12/01 10:04:03;;;;;;;14.57;3.40;;;;;;;6.52;100.00;99107.50;5093623;28;20031;-86
2021/12/01 10:06:29;;;;;;;14.07;4.20;;;;;;;6.61;100.00;99095.34;5094163;28;20399;-88
2021/12/01 10:09:01;;;;;;;17.47;4.63;;;;;;;6.76;100.00;99095.75;5093793;28;20040;-93
2021/12/01 10:11:36;;;;;;;18.33;4.97;;;;;;;6.79;100.00;99086.41;5092641;28;20418;-89
2021/12/01 10:14:18;;;;;;;24.07;4.70;;;;;;;6.69;100.00;99094.19;5093358;28;20040;-87
2021/12/01 10:16:45;;;;;;;16.97;3.90;;;;;;;6.71;100.00;99092.91;5085959;28;20028;-93
2021/12/01 10:19:16;;;;;;;17.27;3.67;;;;;;;6.73;100.00;99095.38;5094194;28;20042;-94
2021/12/01 10:21:47;;;;;;;16.23;4.03;;;;;;;6.91;100.00;99087.25;5084549;28;20036;-94
2021/12/01 10:24:18;;;;;;;16.77;3.80;;;;;;;6.91;100.00;99091.81;5093922;28;20392;-89
2021/12/01 10:26:52;;;;;;;16.50;3.50;;;;;;;6.92;100.00;99090.75;5083625;28;20031;-91
2021/12/01 10:29:32;;;;;;;18.77;3.50;;;;;;;6.88;100.00;99103.03;5093423;28;20475;-91
2021/12/01 10:32:19;;;;;;;17.23;3.40;;;;;;;6.86;100.00;99114.03;5084978;28;20323;-92
2021/12/01 10:34:53;;;;;;;15.80;3.43;;;;;;;6.83;100.00;99106.41;5091797;28;20496;-90
2021/12/01 10:37:23;;;;;;;14.37;3.00;;;;;;;6.80;100.00;99106.03;5091540;28;20077;-88
2021/12/01 10:40:09;;;;;;;11.83;2.70;;;;;;;6.75;100.00;99096.78;5093384;28;20074;-90
2021/12/01 10:42:55;;;;;;;13.43;2.83;;;;;;;6.90;100.00;99109.81;5092207;28;20372;-92
2021/12/01 10:45:24;;;;;;;12.13;2.80;;;;;;;7.16;100.00;99093.50;5086872;28;20066;-89
2021/12/01 10:47:52;;;;;;;12.43;2.50;;;;;;;7.03;100.00;99089.97;5093183;28;20039;-91
2021/12/01 10:50:22;;;;;;;12.87;2.63;;;;;;;7.02;100.00;99104.47;5092539;28;20487;-93
2021/12/01 10:52:51;;;;;;;12.77;2.20;;;;;;;6.81;100.00;99086.97;5091675;28;20035;-91
2021/12/01 10:55:29;;;;;;;9.83;2.50;;;;;;;6.82;100.00;99094.00;5093417;28;20054;-91
2021/12/01 10:57:58;;;;;;;7.97;1.80;;;;;;;6.73;100.00;99079.22;5093296;28;20032;-89
2021/12/01 11:00:43;;;;;;;11.83;2.13;;;;;;;6.77;100.00;99080.41;5092395;28;20074;-92
2021/12/01 11:03:15;;;;;;;12.50;2.30;;;;;;;6.76;100.00;99084.97;5090708;28;20036;-88
2021/12/01 11:05:45;;;;;;;10.00;2.30;;;;;;;6.77;100.00;99096.56;5092122;28;20030;-91
2021/12/01 11:08:14;;;;;;;6.63;1.97;;;;;;;6.61;100.00;99098.06;5093187;28;20039;-89
2021/12/01 11:10:40;;;;;;;8.80;2.00;;;;;;;6.67;100.00;99096.31;5092791;28;20545;-90
2021/12/01 11:13:06;;;;;;;9.73;2.20;;;;;;;6.73;100.00;99087.31;5092544;28;20491;-91
2021/12/01 11:15:43;;;;;;;7.47;2.40;;;;;;;6.80;100.00;99093.44;5091185;28;20036;-91
2021/12/01 11:18:17;;;;;;;10.07;2.20;;;;;;;6.74;100.00;99102.41;5091557;28;20028;-92
2021/12/01 11:20:45;;;;;;;8.95;1.92;;;;;;;6.76;100.00;99105.72;5090962;28;20032;-90
2021/12/01 11:23:13;;;;;;;6.63;2.07;;;;;;;6.83;100.00;99111.81;5091360;28;20031;-90
2021/12/01 11:25:40;;;;;;;7.67;2.30;;;;;;;6.88;100.00;99109.25;5093473;28;20063;-89
2021/12/01 11:28:13;;;;;;;6.73;1.80;;;;;;;6.83;100.00;99127.97;5090638;28;20028;-87
2021/12/01 11:30:40;;;;;;;8.40;2.10;;;;;;;6.80;100.00;99106.88;5092345;28;20043;-90
2021/12/01 11:33:06;;;;;;;10.37;2.10;;;;;;;6.83;100.00;99111.00;5092806;28;20028;-86
2021/12/01 11:35:32;;;;;;;7.33;1.83;;;;;;;6.78;100.00;99090.13;5091251;28;20020;-88
2021/12/01 11:37:58;;;;;;;10.97;2.13;;;;;;;6.85;100.00;99103.50;5092417;28;20032;-93
2021/12/01 11:40:28;;;;;;;9.23;2.10;;;;;;;6.85;100.00;99098.91;5092590;28;20024;-90
2021/12/01 11:42:57;;;;;;;14.33;2.13;;;;;;;6.87;100.00;99088.75;5076053;28;20047;-90